Anthony, Pennsylvania
Current Conditions -  °F | °C
As of 11:54 PM on Saturday 25 Oct 2014 (Local Time) from KIPT Reporting Station
Clear Clear  
Wind Chill: 14°   Ceiling: Unl
Heat Index: 14°   Visibility: 10mi
Dew Point:   Wind: 3mph
Humidity: 55%   Direction: 190°S
Pressure: 29.6"   Gusts: NA
Location:  41.1183°N, 76.7254°W
Report Text: KIPT 260354Z AUTO 19003KT 10SM CLR 14/05 A2960 RMK AO2 SLP024 T01390050
Loading
Personal Weather Stations






























Interactive Weather Map
Tropical Storm Tracking
New forecast layout! Learn more

10-Day Weather Forecast

Advertisements
Track Severe Weather on mobile